地図

経路データ

SID SEASON NUMBER BASIN SUBBASIN NAME ISO_TIME NATURE LAT LON WMO_WIND WMO_PRES WMO_AGENCY TRACK_TYPE DIST2LAND LANDFALL IFLAG USA_AGENCY USA_ATCF_ID USA_LAT USA_LON USA_RECORD USA_STATUS USA_WIND USA_PRES USA_SSHS USA_R34_NE USA_R34_SE USA_R34_SW USA_R34_NW USA_R50_NE USA_R50_SE USA_R50_SW USA_R50_NW USA_R64_NE USA_R64_SE USA_R64_SW USA_R64_NW USA_POCI USA_ROCI USA_RMW USA_EYE TOKYO_LAT TOKYO_LON TOKYO_GRADE TOKYO_WIND TOKYO_PRES TOKYO_R50_DIR TOKYO_R50_LONG TOKYO_R50_SHORT TOKYO_R30_DIR TOKYO_R30_LONG TOKYO_R30_SHORT TOKYO_LAND CMA_LAT CMA_LON CMA_CAT CMA_WIND CMA_PRES HKO_LAT HKO_LON HKO_CAT HKO_WIND HKO_PRES NEWDELHI_LAT NEWDELHI_LON NEWDELHI_GRADE NEWDELHI_WIND NEWDELHI_PRES NEWDELHI_CI NEWDELHI_DP NEWDELHI_POCI REUNION_LAT REUNION_LON REUNION_TYPE REUNION_WIND REUNION_PRES REUNION_TNUM REUNION_CI REUNION_RMW REUNION_R34_NE REUNION_R34_SE REUNION_R34_SW REUNION_R34_NW REUNION_R50_NE REUNION_R50_SE REUNION_R50_SW REUNION_R50_NW REUNION_R64_NE REUNION_R64_SE REUNION_R64_SW REUNION_R64_NW BOM_LAT BOM_LON BOM_TYPE BOM_WIND BOM_PRES BOM_TNUM BOM_CI BOM_RMW BOM_R34_NE BOM_R34_SE BOM_R34_SW BOM_R34_NW BOM_R50_NE BOM_R50_SE BOM_R50_SW BOM_R50_NW BOM_R64_NE BOM_R64_SE BOM_R64_SW BOM_R64_NW BOM_ROCI BOM_POCI BOM_EYE BOM_POS_METHOD BOM_PRES_METHOD NADI_LAT NADI_LON NADI_CAT NADI_WIND NADI_PRES WELLINGTON_LAT WELLINGTON_LON WELLINGTON_WIND WELLINGTON_PRES DS824_LAT DS824_LON DS824_STAGE DS824_WIND DS824_PRES TD9636_LAT TD9636_LON TD9636_STAGE TD9636_WIND TD9636_PRES TD9635_LAT TD9635_LON TD9635_WIND TD9635_PRES TD9635_ROCI NEUMANN_LAT NEUMANN_LON NEUMANN_CLASS NEUMANN_WIND NEUMANN_PRES MLC_LAT MLC_LON MLC_CLASS MLC_WIND MLC_PRES USA_GUST BOM_GUST BOM_GUST_PER REUNION_GUST REUNION_GUST_PER USA_SEAHGT USA_SEARAD_NE USA_SEARAD_SE USA_SEARAD_SW USA_SEARAD_NW STORM_SPEED STORM_DIR
1983299N07172 1983 75 WP MM MARGE 1983-10-26 00:00:00 NR 7.00000 172.000 main 2126 2060 __________O___ -1 7.00000 172.000 0 19 263
1983299N07172 1983 75 WP MM MARGE 1983-10-26 03:00:00 NR 6.88461 171.058 main 2060 1997 __________P___ -1 6.88461 171.058 0 19 263
1983299N07172 1983 75 WP MM MARGE 1983-10-26 06:00:00 NR 6.76451 170.142 main 1991 1927 __________P___ -1 6.76451 170.142 0 18 262
1983299N07172 1983 75 WP MM MARGE 1983-10-26 09:00:00 NR 6.63711 169.281 main 1927 1875 __________P___ -1 6.63711 169.281 0 17 261
1983299N07172 1983 75 WP MM MARGE 1983-10-26 12:00:00 NR 6.50000 168.500 main 1875 1836 __________O___ -1 6.50000 168.500 0 15 259
1983299N07172 1983 75 WP MM MARGE 1983-10-26 15:00:00 NR 6.35229 167.816 main 1831 1783 __________P___ -1 6.35229 167.816 0 13 257
1983299N07172 1983 75 WP MM MARGE 1983-10-26 18:00:00 NR 6.19895 167.198 main 1783 1747 __________P___ -1 6.19894 167.198 0 12 256
1983299N07172 1983 75 WP MM MARGE 1983-10-26 21:00:00 NR 6.04617 166.606 main 1737 1703 __________P___ -1 6.04617 166.606 0 12 256
1983299N07172 1983 75 WP MM MARGE 1983-10-27 00:00:00 NR 5.90000 166.000 main 1703 1671 __________O___ -1 5.90000 166.000 0 13 258
1983299N07172 1983 75 WP MM MARGE 1983-10-27 03:00:00 NR 5.77570 165.334 main 1667 1632 __________P___ -1 5.77570 165.334 0 14 260
1983299N07172 1983 75 WP MM MARGE 1983-10-27 06:00:00 NR 5.65715 164.645 main 1628 1581 __________P___ -1 5.65715 164.645 0 14 260
1983299N07172 1983 75 WP MM MARGE 1983-10-27 09:00:00 NR 5.53503 163.934 main 1577 1526 __________P___ -1 5.53503 163.934 0 15 260
1983299N07172 1983 75 WP MM MARGE 1983-10-27 12:00:00 NR 5.40000 163.200 main 1526 1457 __________O___ -1 5.40000 163.200 0 16 258
1983299N07172 1983 75 WP MM MARGE 1983-10-27 15:00:00 NR 5.22331 162.402 main 1457 1390 __________P___ -1 5.22331 162.402 0 16 257
1983299N07172 1983 75 WP MM MARGE 1983-10-27 18:00:00 NR 5.03530 161.590 main 1390 1328 __________P___ -1 5.03530 161.590 0 16 257
1983299N07172 1983 75 WP MM MARGE 1983-10-27 21:00:00 NR 4.85459 160.808 main 1328 1260 __________P___ -1 4.85459 160.808 0 15 257
1983299N07172 1983 75 WP MM MARGE 1983-10-28 00:00:00 NR 4.70000 160.100 main 1260 1216 __________O___ -1 4.70000 160.100 0 13 258
1983299N07172 1983 75 WP MM MARGE 1983-10-28 03:00:00 NR 4.58358 159.529 main 1209 1173 __________P___ -1 4.58358 159.529 0 11 259
1983299N07172 1983 75 WP MM MARGE 1983-10-28 06:00:00 NR 4.49690 159.033 main 1166 1131 __________P___ -1 4.49690 159.033 0 10 261
1983299N07172 1983 75 WP MM MARGE 1983-10-28 09:00:00 NR 4.43679 158.570 main 1131 1097 __________P___ -1 4.43679 158.570 0 9 264
1983299N07172 1983 75 WP MM MARGE 1983-10-28 12:00:00 NR 4.40000 158.100 main 1097 1064 __________O___ -1 4.40000 158.100 0 10 266
1983299N07172 1983 75 WP MM MARGE 1983-10-28 15:00:00 NR 4.36618 157.564 main 1064 1026 __________P___ -1 4.36618 157.564 0 11 268
1983299N07172 1983 75 WP MM MARGE 1983-10-28 18:00:00 NR 4.35490 157.015 main 1026 997 __________P___ -1 4.35490 157.015 0 11 270
1983299N07172 1983 75 WP MM MARGE 1983-10-28 21:00:00 NR 4.36617 156.458 main 997 962 __________P___ -1 4.36617 156.458 0 11 272
1983299N07172 1983 75 WP MM MARGE 1983-10-29 00:00:00 NR 4.40000 155.900 main 962 935 __________O___ -1 4.40000 155.900 0 11 273
1983299N07172 1983 75 WP MM MARGE 1983-10-29 03:00:00 NR 4.42894 155.350 main 930 916 __________P___ -1 4.42894 155.350 0 11 274
1983299N07172 1983 75 WP MM MARGE 1983-10-29 06:00:00 NR 4.48234 154.800 main 916 895 __________P___ -1 4.48234 154.800 0 11 277
1983299N07172 1983 75 WP MM MARGE 1983-10-29 09:00:00 NR 4.56957 154.250 main 896 883 __________P___ -1 4.56957 154.250 0 11 281
1983299N07172 1983 75 WP MM MARGE 1983-10-29 12:00:00 NR 4.70000 153.700 main 885 878 __________O___ -1 4.70000 153.700 0 12 286
1983299N07172 1983 75 WP MM MARGE 1983-10-29 15:00:00 NR 4.88991 153.142 main 886 883 __________P___ -1 4.88991 153.142 0 12 291
1983299N07172 1983 75 WP MM MARGE 1983-10-29 18:00:00 NR 5.11989 152.585 main 894 892 __________P___ -1 5.11989 152.585 0 12 293
1983299N07172 1983 75 WP MM MARGE 1983-10-29 21:00:00 NR 5.36492 152.036 main 915 913 __________P___ -1 5.36492 152.036 0 17 290
1983299N07172 1983 75 WP MM MARGE 1983-10-30 00:00:00 TS 5.68000 151.000 main 941 941 __O_______O___ -1 6.00000 149.000 1 23 1006 5.60000 151.500 0 19 288
1983299N07172 1983 75 WP MM MARGE 1983-10-30 03:00:00 TS 5.96364 150.189 main 959 952 __P_______P___ -1 6.41008 148.590 1 26 1005 5.74043 150.989 0 16 292
1983299N07172 1983 75 WP MM MARGE 1983-10-30 06:00:00 TS 6.27128 149.510 main 969 967 __O_______P___ -1 6.80000 148.200 1 29 1004 5.87474 150.492 0 14 297
1983299N07172 1983 75 WP MM MARGE 1983-10-30 09:00:00 TS 6.60207 148.920 main 989 989 __P_______P___ -1 7.15745 147.842 1 26 1005 6.04668 149.998 0 11 302
1983299N07172 1983 75 WP MM MARGE 1983-10-30 12:00:00 TS 6.83333 148.611 main 1006 1006 O_O_______O___ jtwc_wp WP181983 6.30000 149.500 25 -1 7.50000 147.500 1 23 1006 6.30000 149.500 1 25 9 310
1983299N07172 1983 75 WP MM MARGE 1983-10-30 15:00:00 TS 7.17564 148.227 main 1045 1045 P_P_______P___ WP181983 6.82525 148.863 25 -1 7.84995 147.157 1 23 1006 6.67652 148.978 1 26 11 313
1983299N07172 1983 75 WP MM MARGE 1983-10-30 18:00:00 TS 7.56817 147.809 main 1087 1087 O_O_______P___ jtwc_wp WP181983 7.30000 148.300 25 -1 8.20000 146.800 1 23 1006 7.13747 148.450 1 27 12 314
1983299N07172 1983 75 WP MM MARGE 1983-10-30 21:00:00 TS 7.97980 147.398 main 1131 1131 P_P_______P___ WP181983 7.71231 147.850 27 -1 8.57243 146.423 1 23 1006 7.65466 147.922 1 28 12 315
1983299N07172 1983 75 WP MM MARGE 1983-10-31 00:00:00 TS 8.43333 146.933 main 1176 1176 O_O_______O___ jtwc_wp WP181983 8.20000 147.400 30 -1 8.90000 146.000 1 23 1006 8.20000 147.400 1 30 14 315
1983299N07172 1983 75 WP MM MARGE 1983-10-31 03:00:00 TS 8.96004 146.396 main 1244 1244 P_P_______P___ WP181983 8.96513 146.793 32 -1 9.13007 145.492 1 26 1004 8.78492 146.901 1 31 15 315
1983299N07172 1983 75 WP MM MARGE 1983-10-31 06:00:00 TS 9.50214 145.841 1004 tokyo main 1302 1302 OOO_______P___ jtwc_wp WP181983 9.70000 146.200 35 0 10.0000 145.500 2 1004 0 0 0 9.30000 145.000 1 29 1002 9.38196 146.408 1 32 13 313
1983299N07172 1983 75 WP MM MARGE 1983-10-31 09:00:00 TS 9.87720 145.400 main 1351 1351 PPP_______P___ WP181983 10.1398 145.777 35 -1 10.0851 145.155 2 1003 0 0 9.44987 144.635 1 29 1002 9.93804 145.911 1 33 11 307
1983299N07172 1983 75 WP MM MARGE 1983-10-31 12:00:00 TS 10.1467 144.987 1002 tokyo main 1378 1378 OOO_______O___ jtwc_wp WP181983 10.4000 145.400 35 0 10.2000 144.800 2 1002 0 0 0 9.60000 144.300 1 29 1002 10.4000 145.400 2 35 10 299
1983299N07172 1983 75 WP MM MARGE 1983-10-31 15:00:00 TS 10.3469 144.545 main 1408 1408 PPP_______P___ WP181983 10.5648 144.987 35 -1 10.3699 144.422 2 1001 0 0 9.78492 143.922 1 29 1001 10.6681 144.847 2 35 10 293
1983299N07172 1983 75 WP MM MARGE 1983-10-31 18:00:00 TS 10.5363 144.071 1000 tokyo main 1438 1438 OOO_______P___ jtwc_wp WP181983 10.7000 144.500 35 0 10.6000 144.000 2 1000 0 0 0 10.0000 143.500 1 29 1000 10.8450 144.283 2 35 11 291
1983299N07172 1983 75 WP MM MARGE 1983-10-31 21:00:00 TS 10.7412 143.520 main 1474 1474 PPP_______P___ WP181983 10.9276 143.865 35 -1 10.8700 143.507 2 999 0 0 10.1676 142.977 1 33 999 10.9994 143.728 2 35 12 296
1983299N07172 1983 75 WP MM MARGE 1983-11-01 00:00:00 TS 11.0529 142.982 35 998 tokyo main 1518 1515 OOOO______O___ jtwc_wp WP181983 11.2000 143.200 35 0 11.2000 143.000 3 35 998 0 9 50 50 0 10.5000 142.500 2 38 998 11.5000 143.100 TD 30 1005 11.2000 143.200 2 35 12 308
1983299N07172 1983 75 WP MM MARGE 1983-11-01 03:00:00 TS 11.4910 142.527 main 1542 1542 PPPP______P___ WP181983 11.4625 142.605 35 -1 11.5848 142.557 3 37 997 0 9 125 100 11.2198 142.235 2 38 997 11.8077 142.585 TD 32 1002 11.5384 142.681 2 36 13 316
1983299N07172 1983 75 WP MM MARGE 1983-11-01 06:00:00 TS 11.9595 142.099 40 996 tokyo main 1583 1580 OOOO______P___ jtwc_wp WP181983 11.8000 142.100 35 0 12.0000 142.100 3 40 996 0 1 200 150 0 12.0000 142.000 2 38 997 12.1000 142.100 TS 35 1000 11.9325 142.196 2 37 12 316
1983299N07172 1983 75 WP MM MARGE 1983-11-01 09:00:00 TS 12.3851 141.647 main 1607 1607 PPPP______P___ WP181983 12.2849 141.690 37 -1 12.4002 141.520 3 40 995 0 1 200 150 12.5026 141.593 2 38 997 12.3774 141.670 TS 37 998 12.3604 141.762 2 38 12 316
1983299N07172 1983 75 WP MM MARGE 1983-11-01 12:00:00 TS 12.8000 141.260 40 994 tokyo main 1636 1632 OOOO______O___ jtwc_wp WP181983 12.8000 141.400 40 0 12.8000 141.000 3 40 994 0 1 200 150 0 12.9000 141.200 2 38 997 12.7000 141.300 TS 40 996 12.8000 141.400 2 40 10 323
1983299N07172 1983 75 WP MM MARGE 1983-11-01 15:00:00 TS 13.2116 140.999 main 1666 1654 PPPP______P___ WP181983 13.2074 141.235 42 -1 13.1923 140.682 3 42 992 0 1 225 175 13.3074 140.977 2 38 995 13.1275 140.970 TS 40 994 13.2233 141.131 2 42 9 332
1983299N07172 1983 75 WP MM MARGE 1983-11-01 18:00:00 TS 13.6306 140.806 45 990 tokyo main 1656 1642 OOOO______P___ jtwc_wp WP181983 13.6000 141.100 45 0 13.6000 140.500 3 45 990 0 1 250 200 0 13.7000 140.800 2 38 993 13.6000 140.700 TS 40 993 13.6529 140.931 2 45 9 336
1983299N07172 1983 75 WP MM MARGE 1983-11-01 21:00:00 TS 14.0662 140.603 main 1644 1629 PPPP______P___ WP181983 14.0500 140.858 47 -1 14.0424 140.385 3 47 990 0 1 225 200 14.1000 140.535 2 43 991 14.0575 140.470 TS 42 991 14.0811 140.765 2 47 10 337
1983299N07172 1983 75 WP MM MARGE 1983-11-02 00:00:00 TS 14.5000 140.420 50 990 tokyo main 1631 1625 OOOO______O___ jtwc_wp WP181983 14.5000 140.600 50 0 14.5000 140.300 4 50 990 0 9 200 200 0 14.5000 140.300 3 48 990 14.5000 140.300 TS 45 990 14.5000 140.600 2 50 9 338
1983299N07172 1983 75 WP MM MARGE 1983-11-02 03:00:00 TS 14.9163 140.251 main 1628 1613 PPPP______P___ WP181983 14.9000 140.363 57 -1 14.9725 140.158 4 55 987 0 9 200 200 14.8999 140.185 3 53 988 14.9150 140.185 TS 47 988 14.8943 140.367 2 57 9 340
1983299N07172 1983 75 WP MM MARGE 1983-11-02 06:00:00 TS 15.3200 140.120 60 985 tokyo main 1615 1615 OOOO______O___ jtwc_wp WP181983 15.3000 140.200 65 1 15.4000 140.000 4 60 985 9 100 100 9 200 200 0 15.3000 140.100 3 58 987 15.3000 140.100 STS 50 986 15.3000 140.200 3 65 8 346
1983299N07172 1983 75 WP MM MARGE 1983-11-02 09:00:00 TS 15.7312 140.048 main 1613 1613 PPPP______P___ WP181983 15.7799 140.207 67 -1 15.7225 139.850 4 62 982 9 100 100 9 225 175 15.7225 139.965 3 58 983 15.6649 140.022 STS 52 983 15.7662 140.194 3 67 8 349
1983299N07172 1983 75 WP MM MARGE 1983-11-02 12:00:00 TS 16.1000 139.960 65 980 tokyo main 1623 1608 OOOO______O___ jtwc_wp WP181983 16.2000 140.200 70 1 16.0000 139.700 5 65 980 9 100 100 3 250 150 0 16.1000 139.800 3 58 980 16.0000 139.900 STS 55 980 16.2000 140.200 4 70 7 339
1983299N07172 1983 75 WP MM MARGE 1983-11-02 15:00:00 TS 16.3920 139.779 main 1611 1593 PPPP______P___ WP181983 16.4375 139.995 72 -1 16.3149 139.572 5 67 977 9 100 100 3 250 150 16.3800 139.615 3 63 976 16.3226 139.665 STS 57 975 16.5048 140.050 4 72 7 322
1983299N07172 1983 75 WP MM MARGE 1983-11-02 18:00:00 TS 16.6232 139.539 70 975 tokyo main 1586 1572 OOOO______P___ jtwc_wp WP181983 16.6000 139.700 75 1 16.6000 139.400 5 70 975 9 100 100 3 250 150 0 16.6000 139.400 4 68 972 16.6000 139.400 STS 60 970 16.7159 139.797 4 75 6 312
1983299N07172 1983 75 WP MM MARGE 1983-11-02 21:00:00 TS 16.8242 139.282 main 1572 1548 PPPP______P___ WP181983 16.8074 139.422 77 -1 16.8150 139.122 5 70 970 9 100 100 3 250 200 16.8149 139.172 4 72 967 16.8148 139.222 STS 65 965 16.8690 139.470 4 77 7 305
1983299N07172 1983 75 WP MM MARGE 1983-11-03 00:00:00 TS 17.0000 138.980 70 965 tokyo main 1548 1522 OOOO______O___ jtwc_wp WP181983 17.0000 139.100 80 1 17.0000 138.800 5 70 965 9 100 100 9 250 250 0 17.0000 138.900 4 77 962 17.0000 139.000 T 70 960 17.0000 139.100 4 80 7 300
1983299N07172 1983 75 WP MM MARGE 1983-11-03 03:00:00 TS 17.1788 138.643 main 1515 1489 PPPP______P___ WP181983 17.1575 138.715 85 -1 17.2073 138.522 5 75 957 9 110 110 9 250 250 17.1574 138.580 4 77 955 17.2075 138.638 T 75 955 17.1641 138.760 4 86 8 296
1983299N07172 1983 75 WP MM MARGE 1983-11-03 06:00:00 TS 17.3429 138.256 80 950 tokyo main 1489 1458 OOOO______P___ jtwc_wp WP181983 17.3000 138.300 90 2 17.4000 138.200 5 80 950 9 120 120 9 250 250 0 17.3000 138.200 4 77 948 17.4000 138.200 T 80 950 17.3145 138.382 4 92 8 292
1983299N07172 1983 75 WP MM MARGE 1983-11-03 09:00:00 TS 17.4944 137.844 main 1448 1414 PPPP______P___ WP181983 17.4498 137.915 97 -1 17.5575 137.780 5 85 940 9 135 135 9 275 275 17.4498 137.787 4 87 939 17.5573 137.772 T 87 940 17.4576 137.963 4 98 9 290
1983299N07172 1983 75 WP MM MARGE 1983-11-03 12:00:00 TS 17.6400 137.380 90 930 tokyo main 1414 1375 OOOO______O___ jtwc_wp WP181983 17.6000 137.500 XX 105 -5 17.7000 137.300 5 90 930 9 150 150 9 300 300 0 17.6000 137.300 5 97 930 17.7000 137.300 ST 95 930 17.6000 137.500 4 105 10 288
1983299N07172 1983 75 WP MM MARGE 1983-11-03 15:00:00 TS 17.7940 136.850 main 1375 1323 PPPP______P___ WP181983 17.7499 137.030 XX 117 -5 17.8574 136.815 5 90 922 9 150 150 9 300 300 17.7502 136.700 5 106 921 17.8575 136.758 ST 102 922 17.7549 136.949 4 113 11 286
1983299N07172 1983 75 WP MM MARGE 1983-11-03 18:00:00 TS 17.9417 136.293 90 915 tokyo main 1323 1287 OOOO______P___ jtwc_wp WP181983 17.9000 136.500 XX 130 -5 18.0000 136.300 5 90 915 9 150 150 9 300 300 0 17.9000 136.100 6 116 913 18.0000 136.200 SuperT 110 915 17.9087 136.363 4 122 11 285
1983299N07172 1983 75 WP MM MARGE 1983-11-03 21:00:00 TS 18.0746 135.738 main 1278 1247 PPPP______P___ WP181983 18.0652 135.878 XX 135 -5 18.1001 135.735 5 100 905 9 150 150 9 300 300 18.0498 135.612 6 126 904 18.1000 135.670 SuperT 120 905 18.0581 135.796 4 131 10 284
1983299N07172 1983 75 WP MM MARGE 1983-11-04 00:00:00 TS 18.2000 135.240 110 895 tokyo main 1238 1217 OOOO______O___ jtwc_wp WP181983 18.2000 135.300 XX 140 -5 18.2000 135.200 5 110 895 9 150 150 9 300 300 0 18.2000 135.200 6 136 896 18.2000 135.200 SuperT 130 895 18.2000 135.300 4 140 9 286
1983299N07172 1983 75 WP MM MARGE 1983-11-04 03:00:00 TS 18.3138 134.837 main 1208 1188 PPPP______P___ WP181983 18.2423 134.890 XX 142 -5 18.3349 134.740 5 110 895 9 150 150 9 325 325 18.3499 134.820 6 136 894 18.3349 134.812 SuperT 130 895 18.3071 134.925 4 140 7 290
1983299N07172 1983 75 WP MM MARGE 1983-11-04 06:00:00 TS 18.4423 134.526 110 895 tokyo main 1188 1180 OOOO______P___ jtwc_wp WP181983 18.3000 134.600 XX 145 -5 18.5000 134.400 5 110 895 9 150 150 9 350 350 0 18.5000 134.500 6 136 892 18.5000 134.500 SuperT 130 895 18.4116 134.629 4 140 6 299
1983299N07172 1983 75 WP MM MARGE 1983-11-04 09:00:00 TS 18.6035 134.289 main 1180 1170 PPPP______P___ WP181983 18.4699 134.377 XX 142 -5 18.6848 134.220 5 110 897 9 150 150 9 350 350 18.6349 134.227 6 136 895 18.6924 134.227 SuperT 127 897 18.5354 134.394 4 140 5 312
1983299N07172 1983 75 WP MM MARGE 1983-11-04 12:00:00 TS 18.8000 134.100 110 900 tokyo main 1171 1162 OOOO______O___ jtwc_wp WP181983 18.7000 134.200 XX 140 -5 18.9000 134.100 5 110 900 9 150 150 9 350 350 0 18.8000 134.000 6 136 898 18.9000 134.000 SuperT 125 900 18.7000 134.200 4 140 6 318
1983299N07172 1983 75 WP MM MARGE 1983-11-04 15:00:00 TS 19.0249 133.885 main 1162 1154 PPPP______P___ WP181983 18.9350 133.985 XX 137 -5 19.1425 133.908 5 110 902 9 150 150 9 350 350 19.0350 133.785 6 136 901 19.0925 133.770 SuperT 122 902 18.9196 133.978 4 137 6 321
1983299N07172 1983 75 WP MM MARGE 1983-11-04 18:00:00 TS 19.2765 133.699 110 905 tokyo main 1160 1153 OOOO______P___ jtwc_wp WP181983 19.2000 133.800 XX 135 -5 19.4000 133.700 5 110 905 9 150 150 9 350 350 0 19.3000 133.600 6 136 904 19.3000 133.600 SuperT 120 905 19.1824 133.796 4 135 6 328
1983299N07172 1983 75 WP MM MARGE 1983-11-04 21:00:00 TS 19.5443 133.543 main 1153 1153 PPPP______P___ WP181983 19.5000 133.670 XX 132 -5 19.6500 133.463 5 110 907 9 150 150 9 350 350 19.5500 133.398 6 131 906 19.5425 133.520 SuperT 117 907 19.4790 133.665 4 132 6 338
1983299N07172 1983 75 WP MM MARGE 1983-11-05 00:00:00 TS 19.8200 133.460 110 910 tokyo main 1171 1169 OOOO______O___ jtwc_wp WP181983 19.8000 133.600 XX 130 -5 19.9000 133.300 5 110 910 9 150 150 9 350 350 0 19.8000 133.300 6 126 908 19.8000 133.500 SuperT 115 910 19.8000 133.600 4 130 5 352
1983299N07172 1983 75 WP MM MARGE 1983-11-05 03:00:00 TS 20.0698 133.462 main 1190 1190 PPPP______P___ WP181983 20.0275 133.563 XX 130 -5 20.1274 133.297 5 110 912 9 150 150 9 350 300 20.0350 133.412 6 126 908 20.0350 133.478 SuperT 115 910 20.1240 133.562 4 128 5 7
1983299N07172 1983 75 WP MM MARGE 1983-11-05 06:00:00 TS 20.3539 133.539 110 915 tokyo main 1195 1186 OOOO______P___ jtwc_wp WP181983 20.3000 133.600 XX 130 -5 20.4000 133.400 5 110 915 9 150 150 3 350 250 0 20.3000 133.600 6 126 908 20.3000 133.500 SuperT 115 910 20.4694 133.593 4 127 7 13
1983299N07172 1983 75 WP MM MARGE 1983-11-05 09:00:00 TS 20.7269 133.628 main 1186 1148 PPPP______P___ WP181983 20.7424 133.705 XX 127 -5 20.7924 133.505 5 105 915 9 137 137 3 350 250 20.6349 133.678 6 121 911 20.6349 133.548 SuperT 112 912 20.8301 133.703 4 126 8 18
1983299N07172 1983 75 WP MM MARGE 1983-11-05 12:00:00 TS 21.1200 133.800 100 915 tokyo main 1148 1121 OOOO______O___ jtwc_wp WP181983 21.2000 133.900 XX 125 -5 21.2000 133.700 5 100 915 9 125 125 3 350 250 0 21.0000 133.800 6 116 914 21.0000 133.700 SuperT 110 915 21.2000 133.900 4 125 8 29
1983299N07172 1983 75 WP MM MARGE 1983-11-05 15:00:00 TS 21.4357 134.045 main 1121 1098 PPPP______P___ WP181983 21.4999 134.155 XX 122 -5 21.4999 133.998 5 100 917 9 125 125 3 350 250 21.3272 134.026 6 111 916 21.3348 133.975 SuperT 107 917 21.5165 134.071 4 123 9 41
1983299N07172 1983 75 WP MM MARGE 1983-11-05 18:00:00 TS 21.7696 134.409 100 920 tokyo main 1091 1063 OOOO______P___ jtwc_wp WP181983 21.8000 134.500 XX 120 -5 21.8000 134.400 5 100 920 9 125 125 3 350 250 0 21.7000 134.400 6 106 918 21.7000 134.400 SuperT 105 920 21.8480 134.343 4 122 11 45
1983299N07172 1983 75 WP MM MARGE 1983-11-05 21:00:00 TS 22.1756 134.852 main 1067 1047 PPPP______P___ WP181983 22.2038 134.831 XX 120 -5 22.1543 134.819 5 100 922 9 125 125 3 350 250 22.1772 134.918 6 106 919 22.1122 134.926 SuperT 102 922 22.2306 134.767 4 121 13 48
1983299N07172 1983 75 WP MM MARGE 1983-11-06 00:00:00 TS 22.6600 135.480 100 925 tokyo main 1041 1030 OOOO______O___ jtwc_wp WP181983 22.7000 135.400 XX 120 -5 22.6000 135.400 5 100 925 9 125 125 3 350 250 0 22.7000 135.600 6 106 920 22.6000 135.600 SuperT 100 925 22.7000 135.400 4 120 17 53
1983299N07172 1983 75 WP MM MARGE 1983-11-06 03:00:00 TS 23.1706 136.287 main 1031 1025 PPPP______P___ WP181983 23.2557 136.395 XX 117 -5 23.1390 136.174 5 100 925 9 125 125 3 350 250 23.1538 136.347 6 106 920 23.1462 136.340 SuperT 100 925 23.1583 136.178 4 118 20 56
1983299N07172 1983 75 WP MM MARGE 1983-11-06 06:00:00 TS 23.7838 137.316 100 925 tokyo main 1027 1024 OOOO______P___ jtwc_wp WP181983 23.9000 137.600 XX 115 -5 23.8000 137.200 5 100 925 9 125 125 3 350 250 0 23.7000 137.300 6 106 920 23.8000 137.300 SuperT 100 925 23.7188 137.181 4 117 24 57
1983299N07172 1983 75 WP MM MARGE 1983-11-06 09:00:00 TS 24.4779 138.491 main 1027 979 PPPP______P___ WP181983 24.5491 138.644 XX 115 -5 24.5093 138.441 5 100 925 9 125 125 3 350 250 24.3702 138.441 6 101 925 24.5162 138.511 SuperT 97 927 24.4448 138.416 4 116 29 56
1983299N07172 1983 75 WP MM MARGE 1983-11-06 12:00:00 TS 25.3800 139.920 100 925 tokyo main 976 948 OOOO______O___ jtwc_wp WP181983 25.4000 139.900 XX 115 -5 25.4000 139.900 5 100 925 9 125 125 3 350 250 0 25.3000 139.900 5 97 930 25.4000 140.000 ST 95 930 25.4000 139.900 4 115 35 54
1983299N07172 1983 75 WP MM MARGE 1983-11-06 15:00:00 TS 26.5038 141.607 main 942 858 PPPP______P___ WP181983 26.5142 141.590 XX 107 -5 26.4532 141.403 5 100 932 9 125 125 3 350 250 26.5230 141.733 5 92 934 26.4051 141.666 ST 90 935 26.6234 141.645 4 108 41 52
1983299N07172 1983 75 WP MM MARGE 1983-11-06 18:00:00 TS 27.8815 143.560 100 940 tokyo main 855 809 OOOO______P___ jtwc_wp WP181983 27.9000 143.600 100 -1 27.8000 143.200 5 100 940 9 125 125 3 350 250 0 28.0000 143.800 5 87 938 27.7000 143.600 ST 85 940 28.0557 143.626 4 102 47 51
1983299N07172 1983 75 WP MM MARGE 1983-11-06 21:00:00 TS 29.4714 145.719 main 806 803 PPPP______P___ WP181983 29.5023 145.787 95 -1 29.4462 145.475 5 85 947 9 112 112 3 325 225 29.5718 145.855 5 82 946 29.3113 145.752 ST 82 947 29.6105 145.796 4 96 52 49
1983299N07172 1983 75 WP MM MARGE 1983-11-07 00:00:00 MX 31.2571 148.071 70 955 tokyo main 827 827 OOOO______O___ jtwc_wp WP181983 31.2000 148.100 90 -1 31.3000 148.000 5 70 955 9 100 100 3 300 200 0 31.3000 148.000 9 77 955 31.2000 148.200 T 80 955 31.2000 148.100 4 90 56 48
1983299N07172 1983 75 WP MM MARGE 1983-11-07 03:00:00 MX 33.2524 150.602 main 925 925 _PPP__________ WP181983 -1 33.2338 150.382 5 72 957 9 100 100 3 300 200 33.1794 150.496 9 77 957 33.3441 150.929 T 77 957 4 58 48
1983299N07172 1983 75 WP MM MARGE 1983-11-07 06:00:00 MX 35.1300 153.150 75 960 tokyo main 1093 1086 _OOO__________ -1 35.1000 153.000 5 75 960 9 100 100 3 300 200 0 35.0000 152.600 9 77 960 35.3000 153.900 T 75 960 4 55 51
1983299N07172 1983 75 WP MM MARGE 1983-11-07 09:00:00 MX 36.6896 155.774 main 1112 1099 _PPP__________ -1 36.7834 156.259 5 968 9 3 36.5732 153.642 9 67 972 36.6181 156.936 T 65 970 4 52 58
1983299N07172 1983 75 WP MM MARGE 1983-11-07 12:00:00 ET 37.9167 158.667 976 tokyo main 1133 1133 _OOO__________ -1 38.0000 159.500 6 976 0 0 0 38.0000 154.000 9 58 985 37.5000 160.000 STS 55 980 53 69
1983299N07172 1983 75 WP MM MARGE 1983-11-07 15:00:00 ET 38.5870 161.995 main 1261 1261 _P____________ -1 38.5870 161.995 6 981 0 0 9 STS 44 78
1983299N07172 1983 75 WP MM MARGE 1983-11-07 18:00:00 ET 38.8000 164.200 986 tokyo main 1386 1386 _O____________ -1 38.8000 164.200 6 986 0 0 0 36 84
1983299N07172 1983 75 WP MM MARGE 1983-11-07 21:00:00 ET 38.9545 166.581 main 1500 1500 _P____________ -1 38.9545 166.581 6 991 0 0 37 87
1983299N07172 1983 75 WP MM MARGE 1983-11-08 00:00:00 ET 39.0000 169.000 996 tokyo main 1612 1612 _O____________ -1 39.0000 169.000 6 996 0 0 0 36 89
1983299N07172 1983 75 WP MM MARGE 1983-11-08 03:00:00 ET 38.9860 171.191 main 1727 1727 _P____________ -1 38.9860 171.191 6 996 0 0 39 90
1983299N07172 1983 75 WP MM MARGE 1983-11-08 06:00:00 ET 39.0000 174.000 996 tokyo main 1871 1836 _O____________ -1 39.0000 174.000 6 996 0 0 0 54 89
1983299N07172 1983 75 WP MM MARGE 1983-11-08 09:00:00 ET 39.0557 178.102 main 1824 1671 _P____________ -1 39.0557 178.102 6 996 0 0 70 90
1983299N07172 1983 75 EP CP MARGE 1983-11-08 12:00:00 ET 39.0000 183.000 main 1662 _O____________ -1 39.0000 183.000 6 996 0 0 0 76 91

デジタル台風データ・検索

IBTrACS Databaseについて

本データベースは、米国NOAAが公開する1842年以降の世界の熱帯低気圧のベストトラックデータアーカイブInternational Best Track Archive for Climate Stewardship (IBTrACS)を、ウェブで閲覧しやすい形式に変換したものです。

最終更新日:2021-11-26